createdAt,value
2023-04-09T00:01:22.569Z,10.76
2023-04-09T00:03:51.554Z,10.72
2023-04-09T00:06:20.043Z,10.59
2023-04-09T00:08:48.528Z,10.54
2023-04-09T00:11:21.935Z,10.52
2023-04-09T00:13:52.553Z,10.51
2023-04-09T00:16:20.964Z,10.49
2023-04-09T00:18:49.572Z,10.55
2023-04-09T00:21:18.303Z,10.60
2023-04-09T00:23:46.690Z,10.63
2023-04-09T00:26:15.076Z,10.65
2023-04-09T00:28:43.437Z,10.64
2023-04-09T00:31:12.374Z,10.64
2023-04-09T00:33:41.522Z,10.63
2023-04-09T00:36:12.996Z,10.65
2023-04-09T00:38:41.690Z,10.69
2023-04-09T00:41:13.523Z,10.73
2023-04-09T00:43:42.307Z,10.75
2023-04-09T00:46:11.115Z,10.76
2023-04-09T00:48:40.087Z,10.74
2023-04-09T00:51:08.583Z,10.66
2023-04-09T00:53:37.563Z,10.56
2023-04-09T00:56:06.767Z,10.47
2023-04-09T00:58:40.984Z,10.39
2023-04-09T01:01:09.407Z,10.37
2023-04-09T01:03:39.349Z,10.37
2023-04-09T01:06:23.932Z,10.40
2023-04-09T01:08:57.322Z,10.42
2023-04-09T01:11:39.313Z,10.44
2023-04-09T01:14:28.937Z,10.41
2023-04-09T01:16:58.035Z,10.40
2023-04-09T01:19:26.464Z,10.38
2023-04-09T01:21:54.742Z,10.36
2023-04-09T01:24:35.510Z,10.34
2023-04-09T01:27:05.120Z,10.32
2023-04-09T01:29:40.056Z,10.36
2023-04-09T01:32:08.326Z,10.36
2023-04-09T01:34:39.197Z,10.33
2023-04-09T01:37:07.535Z,10.26
2023-04-09T01:39:37.065Z,10.21
2023-04-09T01:42:05.915Z,10.17
2023-04-09T01:44:34.109Z,10.15
2023-04-09T01:47:02.485Z,10.13
2023-04-09T01:49:31.273Z,10.08
2023-04-09T01:52:00.060Z,10.06
2023-04-09T01:54:28.758Z,10.11
2023-04-09T01:56:57.578Z,10.16
2023-04-09T01:59:28.882Z,10.17
2023-04-09T02:02:02.002Z,10.17
2023-04-09T02:04:34.366Z,10.18
2023-04-09T02:07:07.285Z,10.16
2023-04-09T02:09:36.864Z,10.17
2023-04-09T02:12:06.235Z,10.20
2023-04-09T02:14:35.950Z,10.25
2023-04-09T02:17:05.679Z,10.28
2023-04-09T02:19:41.113Z,10.29
2023-04-09T02:22:17.286Z,10.28
2023-04-09T02:24:46.465Z,10.27
2023-04-09T02:27:14.952Z,10.26
2023-04-09T02:29:43.624Z,10.28
2023-04-09T02:32:13.542Z,10.25
2023-04-09T02:34:43.966Z,10.23
2023-04-09T02:37:12.551Z,10.22
2023-04-09T02:39:41.348Z,10.23
2023-04-09T02:42:09.835Z,10.26
2023-04-09T02:44:38.195Z,10.30
2023-04-09T02:47:09.549Z,10.34
2023-04-09T02:49:39.460Z,10.37
2023-04-09T02:52:07.847Z,10.36
2023-04-09T02:54:36.112Z,10.28
2023-04-09T02:57:05.927Z,10.26
2023-04-09T02:59:36.080Z,10.29
2023-04-09T03:02:04.424Z,10.32
2023-04-09T03:04:33.420Z,10.29
2023-04-09T03:07:01.902Z,10.23
2023-04-09T03:09:37.958Z,10.18
2023-04-09T03:12:06.856Z,10.14
2023-04-09T03:14:35.446Z,10.08
2023-04-09T03:17:04.135Z,10.02
2023-04-09T03:19:32.807Z,10.05
2023-04-09T03:22:02.214Z,10.10
2023-04-09T03:24:33.567Z,10.14
2023-04-09T03:27:04.395Z,10.19
2023-04-09T03:29:33.097Z,10.22
2023-04-09T03:32:01.760Z,10.19
2023-04-09T03:34:30.452Z,10.19
2023-04-09T03:36:58.861Z,10.16
2023-04-09T03:39:31.529Z,10.17
2023-04-09T03:42:07.566Z,10.17
2023-04-09T03:44:44.657Z,10.14
2023-04-09T03:47:17.230Z,10.07
2023-04-09T03:49:46.530Z,10.04
2023-04-09T03:52:24.738Z,10.05
2023-04-09T03:55:11.562Z,10.05
2023-04-09T03:57:40.018Z,10.05
2023-04-09T04:00:13.533Z,10.02
2023-04-09T04:03:11.916Z,9.98
2023-04-09T04:06:03.731Z,10.01
2023-04-09T04:08:39.596Z,10.01
2023-04-09T04:11:08.686Z,10.05
2023-04-09T04:13:37.713Z,10.06
2023-04-09T04:16:09.548Z,10.00
2023-04-09T04:18:38.852Z,9.96
2023-04-09T04:21:15.354Z,9.94
2023-04-09T04:23:54.128Z,9.95
2023-04-09T04:26:30.691Z,9.99
2023-04-09T04:29:01.125Z,10.04
2023-04-09T04:31:52.669Z,10.04
2023-04-09T04:34:22.805Z,10.09
2023-04-09T04:36:58.521Z,10.17
2023-04-09T04:39:31.612Z,10.25
2023-04-09T04:42:07.454Z,10.27
2023-04-09T04:44:37.980Z,10.31
2023-04-09T04:47:33.240Z,10.33
2023-04-09T04:50:02.655Z,10.35
2023-04-09T04:52:41.008Z,10.37
2023-04-09T04:55:10.107Z,10.48
2023-04-09T04:57:38.923Z,10.59
2023-04-09T05:00:09.748Z,10.66
2023-04-09T05:02:39.133Z,10.72
2023-04-09T05:05:21.281Z,10.80
2023-04-09T05:07:53.541Z,10.85
2023-04-09T05:10:23.213Z,10.91
2023-04-09T05:12:52.097Z,10.97
2023-04-09T05:15:26.631Z,10.99
2023-04-09T05:17:54.981Z,10.99
2023-04-09T05:20:23.887Z,10.98
2023-04-09T05:23:06.512Z,10.98
2023-04-09T05:25:41.542Z,11.03
2023-04-09T05:28:18.035Z,11.03
2023-04-09T05:30:47.449Z,11.09
2023-04-09T05:33:16.192Z,11.11
2023-04-09T05:35:45.345Z,11.11
2023-04-09T05:38:16.668Z,11.13
2023-04-09T05:40:46.075Z,11.13
2023-04-09T05:43:14.650Z,11.15
2023-04-09T05:45:46.216Z,11.16
2023-04-09T05:48:17.426Z,11.13
2023-04-09T05:50:54.475Z,11.15
2023-04-09T05:53:25.959Z,11.18
2023-04-09T05:55:54.844Z,11.19
2023-04-09T05:58:25.677Z,11.17
2023-04-09T06:00:57.957Z,11.15
2023-04-09T06:03:27.049Z,11.14
2023-04-09T06:05:57.472Z,11.15
2023-04-09T06:08:28.007Z,11.15
2023-04-09T06:10:57.099Z,11.09
2023-04-09T06:13:25.474Z,11.09
2023-04-09T06:15:54.299Z,11.07
2023-04-09T06:18:24.388Z,11.03
2023-04-09T06:21:01.793Z,10.97
2023-04-09T06:23:32.508Z,10.98
2023-04-09T06:26:01.493Z,10.96
2023-04-09T06:28:31.940Z,10.93
2023-04-09T06:31:00.565Z,10.94
2023-04-09T06:33:29.021Z,10.94
2023-04-09T06:35:57.503Z,10.95
2023-04-09T06:38:26.185Z,10.97
2023-04-09T06:40:56.065Z,10.96
2023-04-09T06:43:26.900Z,10.98
2023-04-09T06:45:56.108Z,11.02
2023-04-09T06:48:24.403Z,11.08
2023-04-09T06:50:55.221Z,11.15
2023-04-09T06:53:25.033Z,11.18
2023-04-09T06:55:54.461Z,11.19
2023-04-09T06:58:28.078Z,11.24
2023-04-09T07:00:58.144Z,11.29
2023-04-09T07:03:31.150Z,11.27
2023-04-09T07:06:00.331Z,11.30
2023-04-09T07:08:29.237Z,11.33
2023-04-09T07:10:59.645Z,11.36
2023-04-09T07:16:01.758Z,11.45
2023-04-09T07:18:31.847Z,11.50
2023-04-09T07:21:01.249Z,11.54
2023-04-09T07:23:29.947Z,11.61
2023-04-09T07:25:58.519Z,11.67
2023-04-09T07:28:27.469Z,11.71
2023-04-09T07:30:55.786Z,11.73
2023-04-09T07:33:44.082Z,11.76
2023-04-09T07:36:12.928Z,11.85
2023-04-09T07:38:41.703Z,11.94
2023-04-09T07:41:11.830Z,11.98
2023-04-09T07:43:40.922Z,12.01
2023-04-09T07:46:09.823Z,12.03
2023-04-09T07:48:38.602Z,12.07
2023-04-09T07:51:06.984Z,12.14
2023-04-09T07:53:37.439Z,12.21
2023-04-09T07:56:07.019Z,12.27
2023-04-09T07:58:36.621Z,12.34
2023-04-09T08:01:07.259Z,12.43
2023-04-09T08:03:37.237Z,12.55
2023-04-09T08:06:06.012Z,12.66
2023-04-09T08:08:35.362Z,12.69
2023-04-09T08:11:04.978Z,12.73
2023-04-09T08:13:33.552Z,12.89
2023-04-09T08:16:04.137Z,13.18
2023-04-09T08:18:33.070Z,13.44
2023-04-09T08:21:04.687Z,13.60
2023-04-09T08:23:36.317Z,13.61
2023-04-09T08:26:04.759Z,13.56
2023-04-09T08:28:33.137Z,13.51
2023-04-09T08:31:02.272Z,13.45
2023-04-09T08:33:31.226Z,13.41
2023-04-09T08:36:01.977Z,13.43
2023-04-09T08:38:32.186Z,13.44
2023-04-09T08:41:00.789Z,13.44
2023-04-09T08:43:41.968Z,13.47
2023-04-09T08:46:18.269Z,13.47
2023-04-09T08:48:47.108Z,13.39
2023-04-09T08:51:15.898Z,13.27
2023-04-09T08:53:48.046Z,13.14
2023-04-09T08:56:17.046Z,12.97
2023-04-09T08:58:48.012Z,12.81
2023-04-09T09:01:26.313Z,12.70
2023-04-09T09:03:55.818Z,12.61
2023-04-09T09:06:27.334Z,12.50
2023-04-09T09:09:16.628Z,12.40
2023-04-09T09:11:45.914Z,12.31
2023-04-09T09:14:18.010Z,12.25
2023-04-09T09:17:03.847Z,12.19
2023-04-09T09:19:33.942Z,12.13
2023-04-09T09:22:03.365Z,12.05
2023-04-09T09:24:34.389Z,11.95
2023-04-09T09:27:03.072Z,11.84
2023-04-09T09:29:32.107Z,11.69
2023-04-09T09:32:01.204Z,11.57
2023-04-09T09:34:30.516Z,11.45
2023-04-09T09:36:59.093Z,11.37
2023-04-09T09:39:29.315Z,11.32
2023-04-09T09:42:07.122Z,11.28
2023-04-09T09:44:36.924Z,11.19
2023-04-09T09:47:05.622Z,11.11
2023-04-09T09:49:34.604Z,11.02
2023-04-09T09:52:03.407Z,10.91
2023-04-09T09:54:33.615Z,10.80
2023-04-09T09:57:02.533Z,10.71
2023-04-09T09:59:32.435Z,10.64
2023-04-09T10:02:04.469Z,10.59
2023-04-09T10:04:36.913Z,10.54
2023-04-09T10:07:05.979Z,10.49
2023-04-09T10:09:36.170Z,10.46
2023-04-09T10:12:05.206Z,10.47
2023-04-09T10:14:36.022Z,10.47
2023-04-09T10:17:04.795Z,10.48
2023-04-09T10:19:35.733Z,10.51
2023-04-09T10:22:10.153Z,10.58
2023-04-09T10:24:38.522Z,10.56
2023-04-09T10:27:15.955Z,10.56
2023-04-09T10:29:45.942Z,10.53
2023-04-09T10:32:21.880Z,10.49
2023-04-09T10:35:10.228Z,10.40
2023-04-09T10:37:40.252Z,10.33
2023-04-09T10:40:19.275Z,10.30
2023-04-09T10:42:47.757Z,10.28
2023-04-09T10:45:23.304Z,10.30
2023-04-09T10:47:53.897Z,10.31
2023-04-09T10:50:24.045Z,10.30
2023-04-09T10:53:01.030Z,10.35
2023-04-09T10:55:34.896Z,10.41
2023-04-09T10:58:04.549Z,10.45
2023-04-09T11:00:40.509Z,10.50
2023-04-09T11:03:27.757Z,10.54
2023-04-09T11:06:03.595Z,10.53
2023-04-09T11:08:41.995Z,10.51
2023-04-09T11:11:16.931Z,10.49
2023-04-09T11:13:45.920Z,10.49
2023-04-09T11:16:22.800Z,10.54
2023-04-09T11:18:56.499Z,10.56
2023-04-09T11:21:46.892Z,10.53
2023-04-09T11:24:16.086Z,10.52
2023-04-09T11:26:46.206Z,10.53
2023-04-09T11:29:15.412Z,10.54
2023-04-09T11:31:50.032Z,10.54
2023-04-09T11:34:38.415Z,10.52
2023-04-09T11:37:09.448Z,10.48
2023-04-09T11:39:43.938Z,10.46
2023-04-09T11:42:15.720Z,10.46
2023-04-09T11:44:47.047Z,10.46
2023-04-09T11:47:32.633Z,10.48
2023-04-09T11:50:03.185Z,10.50
2023-04-09T11:52:36.959Z,10.50
2023-04-09T11:55:09.446Z,10.53
2023-04-09T11:57:50.111Z,10.53
2023-04-09T12:00:21.252Z,10.51
2023-04-09T12:03:03.721Z,10.51
2023-04-09T12:05:51.279Z,10.52
2023-04-09T12:08:25.189Z,10.50
2023-04-09T12:10:58.120Z,10.51
2023-04-09T12:13:44.916Z,10.55
2023-04-09T12:16:14.675Z,10.58
2023-04-09T12:19:03.662Z,10.60
2023-04-09T12:21:56.639Z,10.62
2023-04-09T12:24:25.810Z,10.65
2023-04-09T12:26:54.086Z,10.66
2023-04-09T12:29:22.508Z,10.68
2023-04-09T12:31:51.405Z,10.67
2023-04-09T12:34:20.458Z,10.65
2023-04-09T12:36:55.894Z,10.56
2023-04-09T12:39:24.272Z,10.47
2023-04-09T12:41:56.055Z,10.45
2023-04-09T12:44:33.428Z,10.43
2023-04-09T12:47:01.879Z,10.42
2023-04-09T12:49:33.349Z,10.39
2023-04-09T12:52:01.627Z,10.36
2023-04-09T12:54:31.751Z,10.40
2023-04-09T12:57:02.074Z,10.41
2023-04-09T12:59:32.698Z,10.42
2023-04-09T13:02:02.378Z,10.42
2023-04-09T13:04:31.556Z,10.40
2023-04-09T13:07:03.226Z,10.34
2023-04-09T13:09:35.532Z,10.34
2023-04-09T13:12:13.127Z,10.37
2023-04-09T13:14:43.455Z,10.46
2023-04-09T13:17:14.458Z,10.57
2023-04-09T13:19:43.129Z,10.67
2023-04-09T13:22:12.683Z,10.74
2023-04-09T13:24:43.581Z,10.77
2023-04-09T13:27:13.238Z,10.79
2023-04-09T13:29:45.827Z,10.82
2023-04-09T13:32:14.645Z,10.84
2023-04-09T13:34:51.572Z,10.84
2023-04-09T13:37:20.175Z,10.82
2023-04-09T13:39:50.072Z,10.86
2023-04-09T13:42:19.372Z,10.92
2023-04-09T13:44:50.517Z,10.97
2023-04-09T13:47:19.096Z,11.03
2023-04-09T13:49:56.076Z,11.07
2023-04-09T13:52:26.712Z,11.14
2023-04-09T13:54:58.361Z,11.18
2023-04-09T13:57:27.468Z,11.20
2023-04-09T13:59:56.877Z,11.20
2023-04-09T14:02:28.347Z,11.21
2023-04-09T14:04:57.340Z,11.19
2023-04-09T14:07:26.298Z,11.19
2023-04-09T14:09:55.075Z,11.18
2023-04-09T14:12:24.485Z,11.16
2023-04-09T14:14:53.071Z,11.12
2023-04-09T14:17:21.965Z,11.08
2023-04-09T14:19:52.591Z,11.08
2023-04-09T14:22:23.328Z,11.08
2023-04-09T14:24:52.844Z,11.08
2023-04-09T14:27:21.412Z,11.07
2023-04-09T14:29:57.776Z,11.05
2023-04-09T14:32:30.155Z,11.00
2023-04-09T14:34:59.041Z,10.96
2023-04-09T14:37:32.536Z,10.95
2023-04-09T14:40:01.816Z,10.98
2023-04-09T14:42:31.163Z,10.99
2023-04-09T14:45:04.434Z,10.98
2023-04-09T14:47:38.313Z,10.96
2023-04-09T14:50:34.678Z,10.97
2023-04-09T14:53:10.529Z,10.98
2023-04-09T14:55:58.871Z,10.97
2023-04-09T14:58:28.072Z,10.95
2023-04-09T15:01:04.857Z,10.94
2023-04-09T15:03:34.396Z,10.93
2023-04-09T15:06:12.801Z,10.89
2023-04-09T15:08:41.760Z,10.86
2023-04-09T15:11:14.889Z,10.85
2023-04-09T15:13:44.770Z,10.88
2023-04-09T15:16:23.832Z,10.90
2023-04-09T15:18:52.969Z,10.86
2023-04-09T15:21:22.883Z,10.87
2023-04-09T15:24:00.682Z,10.88
2023-04-09T15:26:31.548Z,10.87
2023-04-09T15:29:06.930Z,10.84
2023-04-09T15:31:41.785Z,10.81
2023-04-09T15:34:15.009Z,10.79
2023-04-09T15:36:47.384Z,10.80
2023-04-09T15:39:16.267Z,10.77
2023-04-09T15:41:46.692Z,10.74
2023-04-09T15:44:22.956Z,10.70
2023-04-09T15:46:52.186Z,10.67
2023-04-09T15:49:27.797Z,10.66
2023-04-09T15:52:01.411Z,10.64
2023-04-09T15:54:30.460Z,10.62
2023-04-09T15:57:04.819Z,10.60
2023-04-09T15:59:33.935Z,10.57
2023-04-09T16:02:05.080Z,10.55
2023-04-09T16:04:41.852Z,10.53
2023-04-09T16:07:11.256Z,10.53
2023-04-09T16:09:40.226Z,10.52
2023-04-09T16:12:14.153Z,10.50
2023-04-09T16:14:44.968Z,10.50
2023-04-09T16:17:20.109Z,10.52
2023-04-09T16:19:50.333Z,10.55
2023-04-09T16:22:20.473Z,10.53
2023-04-09T16:24:49.185Z,10.48
2023-04-09T16:27:22.965Z,10.44
2023-04-09T16:29:58.506Z,10.44
2023-04-09T16:32:33.729Z,10.48
2023-04-09T16:35:04.869Z,10.50
2023-04-09T16:37:36.420Z,10.51
2023-04-09T16:40:06.350Z,10.50
2023-04-09T16:42:37.167Z,10.49
2023-04-09T16:45:12.105Z,10.49
2023-04-09T16:48:00.305Z,10.46
2023-04-09T16:50:33.545Z,10.45
2023-04-09T16:53:10.003Z,10.43
2023-04-09T16:55:45.246Z,10.41
2023-04-09T16:58:13.737Z,10.40
2023-04-09T17:00:51.445Z,10.41
2023-04-09T17:03:22.934Z,10.41
2023-04-09T17:05:51.874Z,10.38
2023-04-09T17:08:24.646Z,10.36
2023-04-09T17:11:02.381Z,10.34
2023-04-09T17:13:40.447Z,10.33
2023-04-09T17:16:12.010Z,10.33
2023-04-09T17:18:52.501Z,10.32
2023-04-09T17:21:26.782Z,10.26
2023-04-09T17:24:03.146Z,10.20
2023-04-09T17:26:34.669Z,10.21
2023-04-09T17:29:03.280Z,10.25
2023-04-09T17:31:32.693Z,10.29
2023-04-09T17:34:20.321Z,10.28
2023-04-09T17:36:57.135Z,10.27
2023-04-09T17:39:26.843Z,10.29
2023-04-09T17:41:58.361Z,10.30
2023-04-09T17:44:28.892Z,10.29
2023-04-09T17:47:03.101Z,10.27
2023-04-09T17:51:15.246Z,10.26
2023-04-09T17:53:43.693Z,10.18
2023-04-09T17:56:19.370Z,10.16
2023-04-09T17:58:58.163Z,10.16
2023-04-09T18:01:33.003Z,10.15
2023-04-09T18:04:02.505Z,10.15
2023-04-09T18:06:39.372Z,10.18
2023-04-09T18:09:07.960Z,10.23
2023-04-09T18:11:39.109Z,10.24
2023-04-09T18:14:11.069Z,10.25
2023-04-09T18:16:53.470Z,10.23
2023-04-09T18:19:26.738Z,10.23
2023-04-09T18:21:59.747Z,10.23
2023-04-09T18:24:37.087Z,10.23
2023-04-09T18:27:12.294Z,10.22
2023-04-09T18:29:48.621Z,10.22
2023-04-09T18:32:19.809Z,10.20
2023-04-09T18:34:49.036Z,10.21
2023-04-09T18:37:19.617Z,10.25
2023-04-09T18:39:49.275Z,10.29
2023-04-09T18:42:20.201Z,10.31
2023-04-09T18:44:50.394Z,10.35
2023-04-09T18:47:19.175Z,10.37
2023-04-09T18:49:52.485Z,10.39
2023-04-09T18:52:24.911Z,10.39
2023-04-09T18:54:58.778Z,10.37
2023-04-09T18:57:28.921Z,10.34
2023-04-09T18:59:58.690Z,10.32
2023-04-09T19:02:30.259Z,10.31
2023-04-09T19:04:59.623Z,10.28
2023-04-09T19:07:28.011Z,10.30
2023-04-09T19:09:56.531Z,10.29
2023-04-09T19:12:27.999Z,10.25
2023-04-09T19:14:57.061Z,10.22
2023-04-09T19:17:28.693Z,10.21
2023-04-09T19:19:59.593Z,10.21
2023-04-09T19:22:28.729Z,10.24
2023-04-09T19:24:57.721Z,10.26
2023-04-09T19:27:26.827Z,10.25
2023-04-09T19:29:56.600Z,10.26
2023-04-09T19:32:26.299Z,10.24
2023-04-09T19:34:54.663Z,10.23
2023-04-09T19:37:27.788Z,10.24
2023-04-09T19:39:56.859Z,10.27
2023-04-09T19:42:28.961Z,10.25
2023-04-09T19:45:00.065Z,10.24
2023-04-09T19:47:29.663Z,10.23
2023-04-09T19:49:58.152Z,10.25
2023-04-09T19:52:27.229Z,10.26
2023-04-09T19:54:56.510Z,10.25
2023-04-09T19:57:26.646Z,10.21
2023-04-09T19:59:55.802Z,10.19
2023-04-09T20:02:25.726Z,10.20
2023-04-09T20:04:54.719Z,10.18
2023-04-09T20:07:23.188Z,10.17
2023-04-09T20:09:53.614Z,10.16
2023-04-09T20:12:23.981Z,10.16
2023-04-09T20:14:52.842Z,10.13
2023-04-09T20:17:25.020Z,10.06
2023-04-09T20:19:55.941Z,10.03
2023-04-09T20:22:24.723Z,9.98
2023-04-09T20:24:55.663Z,9.94
2023-04-09T20:27:25.371Z,9.88
2023-04-09T20:29:53.753Z,9.84
2023-04-09T20:32:22.938Z,9.81
2023-04-09T20:34:51.446Z,9.80
2023-04-09T20:37:19.909Z,9.76
2023-04-09T20:39:49.720Z,9.69
2023-04-09T20:42:18.749Z,9.67
2023-04-09T20:44:47.303Z,9.65
2023-04-09T20:47:16.812Z,9.63
2023-04-09T20:49:46.868Z,9.63
2023-04-09T20:52:16.017Z,9.66
2023-04-09T20:54:45.622Z,9.67
2023-04-09T20:57:14.223Z,9.70
2023-04-09T20:59:43.094Z,9.73
2023-04-09T21:02:15.057Z,9.73
2023-04-09T21:04:43.644Z,9.69
2023-04-09T21:07:13.254Z,9.67
2023-04-09T21:09:42.037Z,9.70
2023-04-09T21:12:11.558Z,9.69
2023-04-09T21:14:40.842Z,9.71
2023-04-09T21:17:10.142Z,9.77
2023-04-09T21:19:38.530Z,9.79
2023-04-09T21:22:08.551Z,9.76
2023-04-09T21:24:38.164Z,9.75
2023-04-09T21:27:07.682Z,9.78
2023-04-09T21:29:36.242Z,9.81
2023-04-09T21:32:05.361Z,9.84
2023-04-09T21:34:33.917Z,9.86
2023-04-09T21:37:03.443Z,9.88
2023-04-09T21:39:32.122Z,9.91
2023-04-09T21:42:00.605Z,9.92
2023-04-09T21:44:29.185Z,9.93
2023-04-09T21:46:57.580Z,9.87
2023-04-09T21:49:26.454Z,9.83
2023-04-09T21:51:55.953Z,9.85
2023-04-09T21:54:25.564Z,9.89
2023-04-09T21:56:53.967Z,9.91
2023-04-09T21:59:27.022Z,9.90
2023-04-09T22:01:56.566Z,9.91
2023-04-09T22:04:25.859Z,9.93
2023-04-09T22:06:55.235Z,9.93
2023-04-09T22:09:23.628Z,9.93
2023-04-09T22:11:53.766Z,9.90
2023-04-09T22:14:23.151Z,9.90
2023-04-09T22:16:52.470Z,9.87
2023-04-09T22:19:20.918Z,9.88
2023-04-09T22:21:50.976Z,9.87
2023-04-09T22:24:26.716Z,9.84
2023-04-09T22:27:01.820Z,9.85
2023-04-09T22:29:30.202Z,9.82
2023-04-09T22:31:58.681Z,9.80
2023-04-09T22:34:27.775Z,9.82
2023-04-09T22:36:56.357Z,9.81
2023-04-09T22:39:25.372Z,9.74
2023-04-09T22:41:54.039Z,9.69
2023-04-09T22:44:22.468Z,9.68
2023-04-09T22:46:53.299Z,9.72
2023-04-09T22:49:23.997Z,9.75
2023-04-09T22:51:53.584Z,9.72
2023-04-09T22:54:21.864Z,9.73
2023-04-09T22:56:50.648Z,9.73
2023-04-09T22:59:23.017Z,9.76
2023-04-09T23:01:53.930Z,9.74
2023-04-09T23:04:25.662Z,9.70
2023-04-09T23:06:54.909Z,9.69
2023-04-09T23:09:23.450Z,9.70
2023-04-09T23:11:52.496Z,9.73
2023-04-09T23:14:20.871Z,9.73
2023-04-09T23:16:50.675Z,9.70
2023-04-09T23:19:23.282Z,9.70
2023-04-09T23:21:52.347Z,9.71
2023-04-09T23:24:20.893Z,9.71
2023-04-09T23:26:50.654Z,9.69
2023-04-09T23:29:19.444Z,9.65
2023-04-09T23:31:48.858Z,9.62
2023-04-09T23:34:17.533Z,9.62
2023-04-09T23:36:46.227Z,9.62
2023-04-09T23:39:17.555Z,9.61
2023-04-09T23:49:19.064Z,9.60
2023-04-09T23:51:53.673Z,9.55
2023-04-09T23:54:23.693Z,9.50
2023-04-09T23:57:04.670Z,9.47
2023-04-09T23:59:36.217Z,9.50
